Time;durP1;ratioP1;P1;durP2;ratioP2;P2;SDS_P1;SDS_P2;PMS_P1;PMS_P2;Temp;Humidity;BMP_temperature;BMP_pressure;BME280_temperature;BME280_humidity;BME280_pressure;Samples;Min_cycle;Max_cycle;Signal;HPM_P1;HPM_P2
2023/04/08 00:02:15;;;;;;;46.58;26.20;;;;;;;6.33;57.67;95300.16;5069781;28;20032;-73
2023/04/08 00:04:40;;;;;;;43.50;24.75;;;;;;;6.23;58.33;95292.13;5070561;28;20036;-73
2023/04/08 00:07:06;;;;;;;45.50;26.05;;;;;;;6.29;57.76;95328.03;5072228;28;20032;-74
2023/04/08 00:09:31;;;;;;;46.53;26.00;;;;;;;6.44;58.21;95330.88;5072061;28;20165;-73
2023/04/08 00:11:57;;;;;;;53.72;26.17;;;;;;;6.14;57.48;95319.91;5071184;28;20036;-73
2023/04/08 00:14:22;;;;;;;46.25;25.77;;;;;;;6.10;57.67;95303.03;5071825;28;20079;-73
2023/04/08 00:16:48;;;;;;;41.85;24.35;;;;;;;6.16;57.88;95307.31;5070827;28;20048;-74
2023/04/08 00:19:13;;;;;;;45.28;25.40;;;;;;;6.17;57.54;95293.91;5070150;28;20455;-73
2023/04/08 00:21:39;;;;;;;43.70;24.15;;;;;;;6.31;57.66;95327.78;5069683;28;20469;-73
2023/04/08 00:24:05;;;;;;;54.13;26.45;;;;;;;6.27;57.57;95314.31;5069639;28;20450;-74
2023/04/08 00:26:31;;;;;;;42.63;26.50;;;;;;;6.45;57.35;95334.31;5070426;28;20375;-73
2023/04/08 00:28:56;;;;;;;48.60;28.23;;;;;;;6.44;56.90;95317.69;5071613;28;20512;-74
2023/04/08 00:31:22;;;;;;;46.60;27.55;;;;;;;6.51;57.82;95317.50;5071192;28;20039;-74
2023/04/08 00:33:47;;;;;;;48.03;26.83;;;;;;;6.10;58.44;95292.50;5069422;28;20039;-73
2023/04/08 00:36:13;;;;;;;50.92;29.92;;;;;;;6.37;58.24;95329.44;5071585;28;20044;-74
2023/04/08 00:38:38;;;;;;;46.78;28.15;;;;;;;6.37;58.42;95334.72;5071851;28;20027;-73
2023/04/08 00:41:04;;;;;;;49.72;28.70;;;;;;;6.37;58.55;95329.44;5071355;28;20027;-74
2023/04/08 00:43:29;;;;;;;57.38;30.38;;;;;;;6.17;58.78;95319.44;5069019;28;20044;-73
2023/04/08 00:45:55;;;;;;;62.70;32.20;;;;;;;6.04;58.85;95310.03;5071216;28;20032;-74
2023/04/08 00:48:20;;;;;;;59.03;30.13;;;;;;;6.19;58.89;95330.50;5071797;28;20043;-73
2023/04/08 00:50:46;;;;;;;64.82;30.00;;;;;;;5.78;58.84;95261.47;5071121;28;20060;-73
2023/04/08 00:53:16;;;;;;;54.38;29.83;;;;;;;6.25;59.17;95334.84;5069166;28;20032;-73
2023/04/08 00:55:41;;;;;;;54.88;28.70;;;;;;;6.12;59.03;95314.09;5071415;28;20032;-73
2023/04/08 00:58:07;;;;;;;51.83;28.67;;;;;;;6.00;58.89;95298.41;5071255;28;20097;-73
2023/04/08 01:00:35;;;;;;;50.70;28.20;;;;;;;6.22;59.04;95334.50;5070660;28;20032;-73
2023/04/08 01:03:10;;;;;;;56.25;31.48;;;;;;;5.40;58.72;95209.59;5069000;28;20039;-74
2023/04/08 01:05:51;;;;;;;57.58;30.60;;;;;;;6.25;59.32;95341.94;5066887;28;20115;-73
2023/04/08 01:08:17;;;;;;;51.03;29.52;;;;;;;6.01;59.30;95307.91;5069116;28;20024;-73
2023/04/08 01:10:47;;;;;;;54.15;27.48;;;;;;;6.12;59.24;95322.78;5070374;28;20040;-74
2023/04/08 01:13:16;;;;;;;46.08;26.38;;;;;;;5.98;59.55;95299.66;5061346;28;20039;-73
2023/04/08 01:15:43;;;;;;;46.58;25.45;;;;;;;6.09;59.99;95323.28;5059346;28;20025;-73
2023/04/08 01:18:12;;;;;;;42.03;23.50;;;;;;;5.99;60.01;95322.34;5061372;28;20028;-74
2023/04/08 01:20:39;;;;;;;42.22;24.88;;;;;;;6.16;59.25;95334.44;5068768;28;20054;-73
2023/04/08 01:23:23;;;;;;;37.47;23.48;;;;;;;6.17;59.22;95338.69;5068987;28;20032;-73
2023/04/08 01:25:55;;;;;;;45.78;23.27;;;;;;;6.18;59.27;95331.53;5058459;28;20044;-73
2023/04/08 01:28:23;;;;;;;42.47;23.60;;;;;;;6.03;60.00;95313.69;5070439;28;20034;-74
2023/04/08 01:30:50;;;;;;;34.78;21.83;;;;;;;6.06;59.78;95329.03;5065089;28;20094;-75
2023/04/08 01:33:17;;;;;;;45.88;23.67;;;;;;;6.05;59.49;95318.72;5053476;28;20024;-76
2023/04/08 01:35:44;;;;;;;43.28;23.05;;;;;;;5.49;59.76;95238.94;5056568;28;20036;-76
2023/04/08 01:38:15;;;;;;;37.53;22.42;;;;;;;6.19;59.12;95343.69;5068968;28;20162;-76
2023/04/08 01:40:41;;;;;;;38.90;22.38;;;;;;;6.13;59.17;95340.19;5069251;28;20090;-76
2023/04/08 01:43:09;;;;;;;36.00;20.70;;;;;;;6.12;58.97;95329.88;5068792;28;20052;-76
2023/04/08 01:45:35;;;;;;;38.38;22.00;;;;;;;6.22;59.11;95343.22;5066995;28;20055;-76
2023/04/08 01:48:02;;;;;;;37.67;21.50;;;;;;;5.83;59.35;95281.78;5069253;28;20071;-75
2023/04/08 01:50:29;;;;;;;38.28;22.40;;;;;;;6.20;58.89;95342.66;5069505;28;20052;-75
2023/04/08 01:52:57;;;;;;;37.35;21.25;;;;;;;5.84;59.42;95293.91;5066603;28;20039;-76
2023/04/08 01:55:24;;;;;;;35.78;21.17;;;;;;;6.07;59.16;95320.09;5066875;28;20037;-76
2023/04/08 01:57:53;;;;;;;40.45;20.90;;;;;;;6.23;59.61;95342.19;5067270;28;20064;-76
2023/04/08 02:00:23;;;;;;;39.08;20.83;;;;;;;6.12;59.51;95330.69;5061725;28;20025;-76
2023/04/08 02:02:49;;;;;;;38.92;19.95;;;;;;;5.89;59.65;95301.91;5067530;28;20060;-75
2023/04/08 02:05:15;;;;;;;41.83;22.98;;;;;;;6.00;59.50;95314.19;5068855;28;20027;-76
2023/04/08 02:07:40;;;;;;;36.17;20.83;;;;;;;6.01;59.89;95317.63;5066776;28;20495;-76
2023/04/08 02:10:06;;;;;;;37.13;22.35;;;;;;;6.02;59.42;95327.94;5068306;28;20119;-75
2023/04/08 02:12:33;;;;;;;44.78;24.50;;;;;;;6.23;59.60;95368.50;5066541;28;20029;-76
2023/04/08 02:14:58;;;;;;;43.00;25.40;;;;;;;6.02;59.36;95338.47;5059532;28;20490;-76
2023/04/08 02:17:53;;;;;;;42.88;24.90;;;;;;;6.01;60.21;95365.03;5060834;28;20063;-76
2023/04/08 02:20:36;;;;;;;43.60;25.88;;;;;;;6.15;59.64;95368.91;5049946;28;20041;-76
2023/04/08 02:23:08;;;;;;;41.45;24.63;;;;;;;6.19;59.88;95365.53;5067386;28;20041;-75
2023/04/08 02:25:37;;;;;;;;;;;;;;;6.19;59.34;95372.66;5055914;28;20494;-76
2023/04/08 02:28:05;;;;;;;46.25;26.58;;;;;;;6.20;59.45;95372.41;5066751;28;20015;-76
2023/04/08 02:30:33;;;;;;;49.70;28.30;;;;;;;6.07;60.01;95361.41;5067344;28;20031;-76
2023/04/08 02:33:02;;;;;;;47.38;28.52;;;;;;;6.15;60.46;95366.28;5066874;28;20028;-76
2023/04/08 02:35:28;;;;;;;51.45;30.08;;;;;;;6.02;60.00;95351.63;5059982;28;20043;-77
2023/04/08 02:37:54;;;;;;;56.58;28.95;;;;;;;6.17;59.67;95359.75;5067992;28;20467;-76
2023/04/08 02:40:30;;;;;;;55.53;30.40;;;;;;;6.13;60.44;95360.44;5068774;28;20483;-76
2023/04/08 02:42:55;;;;;;;56.20;27.70;;;;;;;6.03;59.67;95344.50;5068487;28;20024;-76
2023/04/08 02:45:22;;;;;;;50.25;26.90;;;;;;;6.10;60.64;95366.22;5068086;28;20473;-76
2023/04/08 02:47:47;;;;;;;47.13;26.50;;;;;;;6.08;61.18;95366.44;5066662;28;20035;-76
2023/04/08 02:50:13;;;;;;;45.75;25.00;;;;;;;5.95;60.43;95334.41;5067818;28;20036;-76
2023/04/08 02:52:38;;;;;;;50.28;26.45;;;;;;;5.80;60.52;95314.66;5066927;28;20119;-76
2023/04/08 02:55:08;;;;;;;47.55;25.95;;;;;;;6.06;60.99;95362.44;5066935;28;20384;-76
2023/04/08 02:57:35;;;;;;;50.00;25.77;;;;;;;6.09;60.70;95361.97;5068021;28;20020;-76
2023/04/08 03:00:03;;;;;;;46.85;26.83;;;;;;;5.86;60.83;95326.06;5066111;28;20032;-76
2023/04/08 03:02:28;;;;;;;44.65;25.75;;;;;;;5.90;61.37;95340.34;5063855;28;20464;-76
2023/04/08 03:04:53;;;;;;;48.17;26.60;;;;;;;6.07;61.15;95366.69;5066929;28;20044;-76
2023/04/08 03:07:19;;;;;;;44.10;24.13;;;;;;;6.08;61.49;95373.56;5066398;28;20029;-76
2023/04/08 03:09:45;;;;;;;44.50;26.80;;;;;;;5.67;61.43;95314.97;5067228;28;20410;-76
2023/04/08 03:12:10;;;;;;;41.78;25.20;;;;;;;5.79;61.29;95328.06;5066553;28;20085;-76
2023/04/08 03:14:36;;;;;;;43.50;23.42;;;;;;;5.86;61.36;95339.22;5066956;28;20103;-76
2023/04/08 03:17:01;;;;;;;44.50;26.45;;;;;;;6.02;61.53;95367.41;5067925;28;20032;-76
2023/04/08 03:19:27;;;;;;;42.60;25.58;;;;;;;6.00;61.78;95366.06;5066251;28;20031;-76
2023/04/08 03:21:52;;;;;;;44.15;25.88;;;;;;;5.74;61.67;95312.97;5067767;28;20039;-76
2023/04/08 03:24:18;;;;;;;44.45;25.15;;;;;;;5.97;62.02;95346.25;5071536;28;20035;-76
2023/04/08 03:26:43;;;;;;;43.05;24.67;;;;;;;5.70;61.80;95309.25;5071338;28;20033;-76
2023/04/08 03:29:09;;;;;;;44.65;28.15;;;;;;;6.01;61.27;95365.03;5071788;28;20036;-76
2023/04/08 03:31:34;;;;;;;46.95;26.85;;;;;;;5.86;61.48;95343.69;5071091;28;20051;-76
2023/04/08 03:34:00;;;;;;;50.42;26.88;;;;;;;5.93;62.03;95355.69;5070317;28;20046;-76
2023/04/08 03:36:25;;;;;;;45.97;27.17;;;;;;;5.89;62.06;95351.91;5067152;28;20036;-76
2023/04/08 03:38:51;;;;;;;49.10;27.88;;;;;;;6.02;62.28;95375.31;5065711;28;20036;-76
2023/04/08 03:41:16;;;;;;;44.85;27.00;;;;;;;6.01;61.57;95372.91;5069544;28;20063;-76
2023/04/08 03:43:42;;;;;;;47.03;25.90;;;;;;;5.87;61.50;95355.81;5069949;28;20515;-76
2023/04/08 03:46:07;;;;;;;46.47;26.85;;;;;;;5.97;61.65;95371.78;5069649;28;20502;-76
2023/04/08 03:48:33;;;;;;;47.95;26.30;;;;;;;5.95;61.90;95373.88;5071462;28;20029;-76
2023/04/08 03:50:58;;;;;;;57.72;27.40;;;;;;;5.94;62.16;95373.06;5069240;28;20033;-76
2023/04/08 03:53:23;;;;;;;47.35;26.40;;;;;;;5.96;62.58;95370.97;5068573;28;20120;-76
2023/04/08 03:55:52;;;;;;;52.33;30.60;;;;;;;5.95;62.28;95368.63;5064574;28;20040;-76
2023/04/08 03:58:17;;;;;;;46.60;28.08;;;;;;;5.80;62.71;95335.69;5069817;28;20063;-76
2023/04/08 04:00:43;;;;;;;53.42;26.10;;;;;;;5.72;62.38;95340.59;5069680;28;20059;-76
2023/04/08 04:03:11;;;;;;;42.17;25.20;;;;;;;5.79;62.64;95341.22;5070280;28;20044;-76
2023/04/08 04:05:37;;;;;;;48.55;26.33;;;;;;;5.62;62.34;95322.00;5069932;28;20060;-76
2023/04/08 04:08:03;;;;;;;50.63;25.65;;;;;;;5.30;63.57;95316.44;5070979;28;20033;-76
2023/04/08 04:10:28;;;;;;;40.88;25.33;;;;;;;5.54;62.49;95330.28;5064590;28;20082;-76
2023/04/08 04:12:54;;;;;;;45.42;25.17;;;;;;;5.62;62.31;95333.31;5069130;28;20036;-76
2023/04/08 04:15:19;;;;;;;44.83;25.20;;;;;;;5.61;62.42;95330.91;5070932;28;20043;-76
2023/04/08 04:17:49;;;;;;;47.95;24.58;;;;;;;5.76;62.22;95358.28;5069547;28;20468;-76
2023/04/08 04:20:15;;;;;;;43.33;25.27;;;;;;;5.70;62.69;95348.72;5070747;28;20473;-76
2023/04/08 04:22:40;;;;;;;42.88;24.58;;;;;;;5.55;62.93;95326.63;5069930;28;20044;-76
2023/04/08 04:25:06;;;;;;;52.05;25.80;;;;;;;5.63;62.70;95339.38;5068985;28;20440;-76
2023/04/08 04:27:31;;;;;;;43.55;24.70;;;;;;;5.58;62.43;95336.66;5064416;28;20039;-76
2023/04/08 04:29:57;;;;;;;51.50;24.88;;;;;;;5.69;62.14;95352.38;5065075;28;20036;-76
2023/04/08 04:32:22;;;;;;;46.78;25.15;;;;;;;5.88;62.21;95378.47;5069098;28;20037;-76
2023/04/08 04:34:47;;;;;;;37.95;22.00;;;;;;;5.71;62.29;95345.06;5067520;28;20418;-76
2023/04/08 04:37:13;;;;;;;44.22;23.80;;;;;;;5.51;62.42;95321.00;5070391;28;20036;-76
2023/04/08 04:39:38;;;;;;;44.10;24.40;;;;;;;5.88;62.33;95371.38;5070661;28;20033;-76
2023/04/08 04:42:04;;;;;;;39.85;24.35;;;;;;;5.77;62.55;95351.19;5070135;28;20562;-76
2023/04/08 04:44:29;;;;;;;39.53;22.27;;;;;;;5.86;62.05;95362.13;5068210;28;20075;-76
2023/04/08 04:46:55;;;;;;;38.75;22.85;;;;;;;5.75;61.90;95346.16;5068586;28;20104;-76
2023/04/08 04:49:20;;;;;;;38.45;22.25;;;;;;;5.30;62.03;95282.28;5057880;28;20119;-76
2023/04/08 04:51:46;;;;;;;30.23;20.13;;;;;;;5.61;61.72;95317.75;5068796;28;20037;-76
2023/04/08 04:54:11;;;;;;;32.20;18.70;;;;;;;6.05;61.04;95376.66;5069437;28;20060;-75
2023/04/08 04:56:37;;;;;;;37.15;21.10;;;;;;;5.93;61.42;95381.22;5070511;28;20046;-76
2023/04/08 04:59:04;;;;;;;37.10;20.95;;;;;;;5.72;60.83;95340.59;5069496;28;20070;-75
2023/04/08 05:01:29;;;;;;;37.55;20.45;;;;;;;5.83;60.89;95352.84;5068962;28;20089;-76
2023/04/08 05:03:55;;;;;;;38.33;21.10;;;;;;;5.96;60.83;95386.78;5070088;28;20033;-75
2023/04/08 05:06:22;;;;;;;35.47;20.00;;;;;;;5.96;60.30;95384.16;5069198;28;20028;-75
2023/04/08 05:08:50;;;;;;;33.25;19.20;;;;;;;5.92;60.23;95371.72;5064209;28;20040;-76
2023/04/08 05:11:17;;;;;;;38.45;18.05;;;;;;;6.05;60.21;95387.19;5068200;28;20035;-75
2023/04/08 05:13:42;;;;;;;32.70;17.17;;;;;;;5.52;60.17;95332.34;5069843;28;20548;-76
2023/04/08 05:16:08;;;;;;;24.17;15.73;;;;;;;5.74;59.96;95357.72;5067988;28;20037;-76
2023/04/08 05:18:33;;;;;;;27.50;16.27;;;;;;;5.72;60.61;95362.41;5068109;28;20039;-75
2023/04/08 05:20:59;;;;;;;29.48;16.27;;;;;;;5.72;59.80;95359.00;5068083;28;20119;-75
2023/04/08 05:23:24;;;;;;;26.30;16.17;;;;;;;5.76;61.00;95368.81;5069426;28;20031;-76
2023/04/08 05:25:50;;;;;;;27.58;16.38;;;;;;;5.94;59.96;95359.91;5069166;28;20040;-75
2023/04/08 05:28:15;;;;;;;28.75;16.30;;;;;;;6.20;59.92;95390.03;5066874;28;20082;-75
2023/04/08 05:30:41;;;;;;;30.95;17.48;;;;;;;5.95;60.39;95337.03;5064569;28;20048;-75
2023/04/08 05:33:06;;;;;;;28.92;17.20;;;;;;;5.98;60.22;95350.50;5067570;28;20032;-75
2023/04/08 05:35:31;;;;;;;30.50;16.52;;;;;;;6.28;60.61;95384.38;5067788;28;20471;-76
2023/04/08 05:37:57;;;;;;;29.58;15.63;;;;;;;6.25;60.28;95363.00;5068684;28;20064;-75
2023/04/08 05:40:23;;;;;;;27.48;16.08;;;;;;;6.52;60.17;95392.88;5069357;28;20036;-76
2023/04/08 05:42:48;;;;;;;30.05;16.50;;;;;;;6.58;59.83;95395.34;5067861;28;20208;-76
2023/04/08 05:45:14;;;;;;;30.48;18.55;;;;;;;6.62;59.88;95392.25;5069056;28;20127;-76
2023/04/08 05:47:39;;;;;;;32.67;17.40;;;;;;;6.45;59.98;95344.84;5067076;28;20117;-76
2023/04/08 05:50:05;;;;;;;31.90;16.20;;;;;;;6.71;59.59;95380.25;5068725;28;20024;-76
2023/04/08 05:52:30;;;;;;;32.38;17.13;;;;;;;6.83;59.40;95386.19;5069111;28;20024;-76
2023/04/08 05:54:56;;;;;;;33.05;17.70;;;;;;;6.91;59.23;95383.13;5068449;28;20044;-76
2023/04/08 05:57:21;;;;;;;32.40;17.17;;;;;;;6.77;58.56;95355.53;5067164;28;20039;-76
2023/04/08 05:59:47;;;;;;;31.42;16.42;;;;;;;7.07;58.50;95387.53;5067291;28;20379;-76
2023/04/08 06:02:12;;;;;;;32.42;17.20;;;;;;;7.12;58.03;95390.22;5069108;28;20111;-76
2023/04/08 06:04:37;;;;;;;32.10;17.50;;;;;;;6.93;57.79;95349.41;5068691;28;20118;-76
2023/04/08 06:07:04;;;;;;;33.78;18.08;;;;;;;7.07;57.93;95365.66;5067038;28;20050;-76
2023/04/08 06:09:33;;;;;;;29.65;17.13;;;;;;;6.59;57.77;95274.94;5067818;28;20032;-76
2023/04/08 06:11:58;;;;;;;35.63;18.08;;;;;;;6.48;57.78;95252.16;5067680;28;20455;-76
2023/04/08 06:14:24;;;;;;;34.28;17.50;;;;;;;7.15;58.20;95355.47;5068584;28;20066;-76
2023/04/08 06:16:49;;;;;;;32.42;17.77;;;;;;;7.20;58.00;95344.97;5068524;28;20036;-76
2023/04/08 06:19:15;;;;;;;34.42;18.27;;;;;;;7.36;57.56;95367.03;5066381;28;20025;-76
2023/04/08 06:21:40;;;;;;;37.33;18.33;;;;;;;7.01;58.40;95306.00;5066936;28;20060;-76
2023/04/08 06:24:06;;;;;;;37.67;19.33;;;;;;;7.09;58.09;95322.19;5067227;28;20537;-76
2023/04/08 06:26:31;;;;;;;31.20;17.13;;;;;;;7.49;58.39;95371.09;5068728;28;20025;-76
2023/04/08 06:28:57;;;;;;;30.48;19.45;;;;;;;7.64;58.26;95387.88;5061234;28;20083;-76
2023/04/08 06:31:23;;;;;;;30.60;19.15;;;;;;;7.68;58.32;95390.84;5068440;28;20040;-76
2023/04/08 06:33:49;;;;;;;34.03;17.98;;;;;;;7.59;58.75;95392.31;5066810;28;20090;-76
2023/04/08 06:36:15;;;;;;;39.30;20.40;;;;;;;7.36;58.29;95357.25;5068625;28;20041;-76
2023/04/08 06:38:40;;;;;;;30.23;18.33;;;;;;;7.34;59.04;95348.00;5067872;28;20035;-77
2023/04/08 06:41:06;;;;;;;34.60;19.42;;;;;;;7.55;58.52;95370.13;5067827;28;20037;-76
2023/04/08 06:43:33;;;;;;;33.63;19.08;;;;;;;7.47;58.80;95334.41;5067853;28;20044;-76
2023/04/08 06:45:58;;;;;;;30.42;18.75;;;;;;;7.71;59.63;95392.94;5068210;28;20032;-76
2023/04/08 06:48:29;;;;;;;34.22;19.95;;;;;;;7.79;59.48;95389.84;5066821;28;20036;-76
2023/04/08 06:50:58;;;;;;;33.97;19.80;;;;;;;7.33;59.11;95301.53;5065807;28;20079;-76
2023/04/08 06:53:25;;;;;;;32.05;19.50;;;;;;;7.29;59.46;95284.63;5068403;28;20029;-76
2023/04/08 06:55:50;;;;;;;37.30;19.38;;;;;;;7.52;60.15;95341.56;5061975;28;20047;-75
2023/04/08 06:58:16;;;;;;;36.17;21.48;;;;;;;7.70;60.77;95362.34;5068485;28;20029;-76
2023/04/08 07:00:42;;;;;;;38.03;19.80;;;;;;;8.01;60.15;95392.44;5070068;28;20036;-76
2023/04/08 07:03:08;;;;;;;33.22;19.58;;;;;;;7.99;59.89;95368.94;5070871;28;20592;-76
2023/04/08 07:05:37;;;;;;;31.98;19.05;;;;;;;7.72;60.16;95339.91;5072322;28;20117;-76
2023/04/08 07:08:03;;;;;;;31.17;19.05;;;;;;;7.99;60.19;95368.13;5069583;28;20056;-76
2023/04/08 07:10:28;;;;;;;33.03;19.75;;;;;;;7.85;59.71;95337.91;5060816;28;20542;-76
2023/04/08 07:12:54;;;;;;;34.45;19.58;;;;;;;8.21;59.02;95354.81;5070295;28;20122;-76
2023/04/08 07:15:19;;;;;;;40.33;20.02;;;;;;;8.08;59.37;95364.78;5072113;28;20662;-77
2023/04/08 07:17:46;;;;;;;37.58;20.00;;;;;;;8.43;59.14;95385.38;5070318;28;20555;-76
2023/04/08 07:20:12;;;;;;;33.83;21.08;;;;;;;8.32;59.98;95380.28;5069909;28;20040;-76
2023/04/08 07:22:38;;;;;;;33.17;19.05;;;;;;;8.53;59.23;95400.53;5071409;28;20032;-76
2023/04/08 07:25:04;;;;;;;34.33;19.35;;;;;;;8.67;59.20;95406.94;5066527;28;20040;-76
2023/04/08 07:27:29;;;;;;;28.90;19.00;;;;;;;8.61;58.52;95409.81;5069614;28;20029;-76
2023/04/08 07:29:55;;;;;;;34.45;19.27;;;;;;;8.58;58.18;95373.31;5071435;28;20443;-76
2023/04/08 07:32:21;;;;;;;30.65;18.58;;;;;;;8.58;58.10;95366.19;5069468;28;20078;-76
2023/04/08 07:34:46;;;;;;;27.00;18.08;;;;;;;8.48;59.16;95381.97;5071722;28;20044;-76
2023/04/08 07:37:12;;;;;;;24.33;17.00;;;;;;;8.58;58.46;95363.53;5066293;28;20035;-76
2023/04/08 07:39:37;;;;;;;26.30;16.85;;;;;;;8.75;58.03;95366.00;5071629;28;20107;-76
2023/04/08 07:42:02;;;;;;;26.58;16.80;;;;;;;8.61;59.28;95383.38;5063124;28;20040;-77
2023/04/08 07:44:28;;;;;;;28.88;17.17;;;;;;;8.76;58.20;95400.13;5071289;28;20218;-76
2023/04/08 07:46:53;;;;;;;25.08;16.50;;;;;;;9.05;57.78;95413.75;5071487;28;20411;-76
2023/04/08 07:49:19;;;;;;;31.75;18.00;;;;;;;8.70;58.49;95360.69;5071448;28;20047;-77
2023/04/08 07:51:44;;;;;;;26.58;16.58;;;;;;;8.90;58.68;95395.97;5069516;28;20106;-76
2023/04/08 07:54:11;;;;;;;29.48;17.33;;;;;;;9.06;57.96;95399.50;5069449;28;20029;-77
2023/04/08 07:56:39;;;;;;;25.15;16.50;;;;;;;9.29;58.41;95422.88;5068821;28;20124;-76
2023/04/08 07:59:05;;;;;;;29.92;19.20;;;;;;;9.19;58.32;95399.00;5070733;28;20048;-76
2023/04/08 08:01:33;;;;;;;29.77;16.98;;;;;;;9.22;57.84;95414.38;5070894;28;20505;-76
2023/04/08 08:03:59;;;;;;;29.58;18.45;;;;;;;9.48;56.90;95433.78;5068919;28;20066;-76
2023/04/08 08:06:25;;;;;;;26.20;18.45;;;;;;;9.22;57.07;95365.94;5061114;28;20028;-76
2023/04/08 08:08:50;;;;;;;25.45;16.98;;;;;;;9.63;56.48;95425.06;5068622;28;20060;-76
2023/04/08 08:11:15;;;;;;;26.00;17.17;;;;;;;9.45;56.23;95373.44;5070199;28;20394;-76
2023/04/08 08:13:41;;;;;;;33.47;17.67;;;;;;;9.98;55.28;95434.97;5070497;28;20066;-76
2023/04/08 08:16:10;;;;;;;32.30;18.15;;;;;;;9.86;55.69;95405.25;5069671;28;20035;-76
2023/04/08 08:18:36;;;;;;;34.65;18.42;;;;;;;10.04;54.57;95431.25;5071224;28;20040;-76
2023/04/08 08:21:01;;;;;;;28.63;18.67;;;;;;;9.91;54.86;95402.63;5070664;28;20495;-76
2023/04/08 08:23:27;;;;;;;39.97;20.15;;;;;;;10.14;54.37;95412.72;5070495;28;20036;-76
2023/04/08 08:26:00;;;;;;;28.00;18.63;;;;;;;10.22;53.71;95424.69;5070671;28;20040;-76
2023/04/08 08:28:26;;;;;;;31.90;18.88;;;;;;;10.09;55.59;95423.31;5070745;28;20036;-76
2023/04/08 08:30:52;;;;;;;29.95;19.63;;;;;;;10.20;55.79;95414.34;5068576;28;20041;-76
2023/04/08 08:33:17;;;;;;;32.53;18.67;;;;;;;10.31;53.90;95412.47;5070714;28;20103;-77
2023/04/08 08:35:43;;;;;;;32.55;18.35;;;;;;;10.35;53.21;95405.59;5069807;28;20033;-77
2023/04/08 08:38:08;;;;;;;28.90;19.13;;;;;;;10.35;53.97;95405.59;5070855;28;20059;-77
2023/04/08 08:40:34;;;;;;;30.10;18.60;;;;;;;10.28;53.83;95400.56;5055988;28;20118;-77
2023/04/08 08:43:00;;;;;;;31.90;18.98;;;;;;;10.21;54.14;95397.38;5068390;28;20422;-77
2023/04/08 08:45:26;;;;;;;30.50;19.75;;;;;;;10.57;54.17;95422.00;5068644;28;20048;-77
2023/04/08 08:47:51;;;;;;;28.27;17.65;;;;;;;10.68;53.32;95422.81;5070353;28;20523;-77
2023/04/08 08:50:18;;;;;;;32.13;20.73;;;;;;;10.63;53.12;95434.19;5070340;28;20025;-77
2023/04/08 08:52:48;;;;;;;30.77;19.25;;;;;;;10.25;54.11;95384.38;5068393;28;20040;-77
2023/04/08 08:55:14;;;;;;;32.30;18.40;;;;;;;10.23;53.67;95405.84;5069773;28;20394;-76
2023/04/08 08:57:40;;;;;;;34.38;20.02;;;;;;;9.85;53.27;95342.75;5068757;28;20024;-77
2023/04/08 09:00:07;;;;;;;32.95;20.00;;;;;;;10.01;54.74;95410.56;5068364;28;20032;-77
2023/04/08 09:02:33;;;;;;;31.77;18.95;;;;;;;10.18;54.37;95436.88;5068532;28;20029;-77
2023/04/08 09:05:00;;;;;;;35.40;20.55;;;;;;;10.13;55.73;95440.28;5069636;28;20035;-77
2023/04/08 09:07:27;;;;;;;29.10;19.92;;;;;;;10.25;54.77;95421.50;5069572;28;20043;-77
2023/04/08 09:09:55;;;;;;;38.40;20.73;;;;;;;10.32;55.22;95422.03;5070001;28;20520;-77
2023/04/08 09:12:21;;;;;;;38.78;22.13;;;;;;;10.34;55.83;95446.41;5069696;28;20033;-77
2023/04/08 09:14:47;;;;;;;34.00;19.90;;;;;;;10.43;55.05;95442.19;5069492;28;20562;-76
2023/04/08 09:17:13;;;;;;;35.30;21.10;;;;;;;9.81;55.83;95392.03;5048464;28;20170;-77
2023/04/08 09:19:38;;;;;;;32.53;21.33;;;;;;;10.21;56.46;95439.78;5068256;28;20032;-76
2023/04/08 09:22:08;;;;;;;38.85;21.27;;;;;;;9.99;56.37;95371.09;5067555;28;20024;-76
2023/04/08 09:24:35;;;;;;;35.33;20.00;;;;;;;10.62;55.49;95429.97;5069387;28;20036;-77
2023/04/08 09:27:01;;;;;;;32.40;19.42;;;;;;;10.59;55.45;95425.19;5068665;28;20094;-77
2023/04/08 09:29:26;;;;;;;32.88;19.98;;;;;;;10.16;54.80;95340.88;5069483;28;20090;-77
2023/04/08 09:31:54;;;;;;;32.00;18.63;;;;;;;10.72;55.13;95429.16;5069553;28;20439;-77
2023/04/08 09:34:22;;;;;;;36.05;19.33;;;;;;;10.89;54.44;95424.34;5067781;28;20532;-77
2023/04/08 09:36:48;;;;;;;28.00;17.83;;;;;;;11.09;53.59;95396.94;5062847;28;20029;-77
2023/04/08 09:39:14;;;;;;;30.33;18.52;;;;;;;11.45;52.66;95421.50;5067441;28;20040;-77
2023/04/08 09:41:40;;;;;;;35.70;18.52;;;;;;;11.17;53.47;95397.19;5065008;28;20112;-77
2023/04/08 09:44:07;;;;;;;31.25;19.15;;;;;;;11.27;53.30;95414.94;5068975;28;20151;-77
2023/04/08 09:46:42;;;;;;;31.33;18.52;;;;;;;11.53;52.49;95411.09;5069572;28;20430;-77
2023/04/08 09:50:05;;;;;;;29.35;17.90;;;;;;;11.66;52.03;95423.00;5066748;28;20032;-77
2023/04/08 09:52:43;;;;;;;30.58;18.08;;;;;;;11.60;51.82;95413.44;5006268;28;20040;-77
2023/04/08 09:55:11;;;;;;;24.00;16.42;;;;;;;11.59;51.51;95387.97;5006601;28;20037;-78
2023/04/08 09:57:43;;;;;;;28.98;18.88;;;;;;;11.91;51.75;95406.94;5032245;28;20131;-77
2023/04/08 10:00:13;;;;;;;29.17;16.13;;;;;;;12.57;50.90;95411.75;5068955;28;20033;-78
2023/04/08 10:02:59;;;;;;;28.42;17.55;;;;;;;13.34;49.06;95399.28;5069056;28;20031;-78
2023/04/08 10:05:26;;;;;;;36.30;18.05;;;;;;;13.68;46.80;95374.31;5060047;28;20028;-78
2023/04/08 10:07:54;;;;;;;29.23;17.65;;;;;;;14.80;45.40;95400.06;5068536;28;20529;-78
2023/04/08 10:10:20;;;;;;;27.63;15.98;;;;;;;15.39;42.39;95367.13;5068545;28;20026;-77
2023/04/08 10:12:46;;;;;;;25.30;15.98;;;;;;;16.14;41.69;95364.69;5052000;28;20481;-78
2023/04/08 10:15:25;;;;;;;28.20;16.00;;;;;;;15.93;40.40;95378.84;5065010;28;20465;-78
2023/04/08 10:17:54;;;;;;;25.20;15.82;;;;;;;16.30;40.01;95359.78;5063080;28;20536;-77
2023/04/08 10:20:35;;;;;;;28.00;16.42;;;;;;;16.40;40.83;95383.59;5066820;28;20035;-78
2023/04/08 10:23:06;;;;;;;27.83;15.80;;;;;;;16.57;40.05;95377.56;5067111;28;20042;-78
2023/04/08 10:25:44;;;;;;;25.63;16.40;;;;;;;16.42;40.23;95376.06;5060304;28;20045;-78
2023/04/08 10:28:10;;;;;;;26.27;15.93;;;;;;;15.53;41.26;95375.94;5058292;28;20029;-77
2023/04/08 10:30:39;;;;;;;27.42;15.85;;;;;;;15.31;41.45;95386.53;5068076;28;20124;-77
2023/04/08 10:33:11;;;;;;;20.70;14.65;;;;;;;15.34;42.03;95375.22;5066148;28;20159;-77
2023/04/08 10:35:44;;;;;;;22.83;15.30;;;;;;;14.58;43.06;95353.44;5066966;28;20032;-78
2023/04/08 10:38:12;;;;;;;23.15;15.00;;;;;;;14.65;42.67;95377.06;5068856;28;20039;-78
2023/04/08 10:40:41;;;;;;;24.75;15.85;;;;;;;14.62;42.46;95372.34;5066361;28;20459;-77
2023/04/08 10:43:13;;;;;;;24.40;14.63;;;;;;;14.09;44.29;95347.84;5066781;28;20540;-77
2023/04/08 10:45:39;;;;;;;26.38;16.17;;;;;;;13.81;45.08;95371.72;5066905;28;20411;-77
2023/04/08 10:48:16;;;;;;;28.02;15.35;;;;;;;13.46;45.59;95370.34;5063985;28;20028;-77
2023/04/08 10:50:43;;;;;;;22.17;14.85;;;;;;;13.63;44.99;95353.84;5067277;28;20056;-78
2023/04/08 10:53:10;;;;;;;29.90;16.00;;;;;;;13.53;44.87;95343.34;5067496;28;20036;-77
2023/04/08 10:55:35;;;;;;;27.20;18.05;;;;;;;13.49;45.88;95337.81;5062229;28;20035;-77
2023/04/08 10:58:08;;;;;;;29.38;16.52;;;;;;;13.68;46.77;95297.00;5063682;28;20107;-78
2023/04/08 11:00:36;;;;;;;24.02;15.90;;;;;;;14.32;43.99;95320.25;5067088;28;20039;-78
2023/04/08 11:03:10;;;;;;;27.23;15.52;;;;;;;14.79;43.59;95348.53;5066760;28;20036;-77
2023/04/08 11:05:37;;;;;;;29.20;17.25;;;;;;;15.16;42.68;95318.19;5065239;28;20037;-77
2023/04/08 11:08:03;;;;;;;23.27;16.02;;;;;;;15.25;42.45;95350.31;5064405;28;20146;-77
2023/04/08 11:10:28;;;;;;;31.45;15.23;;;;;;;15.00;41.55;95319.56;5067199;28;20029;-77
2023/04/08 11:12:54;;;;;;;24.85;15.05;;;;;;;14.73;41.12;95338.22;5063062;28;20024;-77
2023/04/08 11:15:21;;;;;;;25.48;15.15;;;;;;;14.35;41.26;95316.97;5065407;28;20392;-77
2023/04/08 11:17:48;;;;;;;23.55;15.70;;;;;;;13.87;43.31;95335.13;5074110;28;20087;-78
2023/04/08 11:20:13;;;;;;;23.10;14.38;;;;;;;13.69;43.32;95291.41;5066674;28;20101;-77
2023/04/08 11:22:39;;;;;;;25.40;14.43;;;;;;;13.67;43.65;95311.41;5066800;28;20056;-78
2023/04/08 11:25:07;;;;;;;26.30;14.93;;;;;;;13.89;44.77;95303.63;5066809;28;20039;-78